Terminal Aerodrome Forecast
Issued by NWS

Home | Current Version | Previous Version | Graphics & Text | Print | Product List | Glossary On
Versions: 1 2 3 4 5 6 7 8 9 10 11 12 13 14 15 16
836
FTUS43 KICT 090538
TAFCNU
TAF
KCNU 090538Z 0906/1006 32012G19KT P6SM SCT250
     FM091400 33015G22KT P6SM SCT250
     FM091600 34021G29KT P6SM SCT250
     FM100000 33008KT P6SM SCT250=

USA.gov is the U.S. government's official web portal to all federal, state and local government web resources and services.